Time;durP1;ratioP1;P1;durP2;ratioP2;P2;SDS_P1;SDS_P2;PMS_P1;PMS_P2;Temp;Humidity;BMP_temperature;BMP_pressure;BME280_temperature;BME280_humidity;BME280_pressure;Samples;Min_cycle;Max_cycle;Signal;HPM_P1;HPM_P2
2022/06/08 00:02:21;;;;;;;;;11.20;10.00;;;;;23.12;45.49;98612.09;5113218;28;9561;-74
2022/06/08 00:04:50;;;;;;;;;9.40;9.00;;;;;23.12;45.63;98606.78;5113295;28;8854;-74
2022/06/08 00:07:20;;;;;;;;;8.40;8.40;;;;;23.15;45.59;98606.53;5077757;28;8828;-74
2022/06/08 00:09:49;;;;;;;;;12.80;12.00;;;;;23.13;45.45;98617.28;5113655;28;9004;-75
2022/06/08 00:12:18;;;;;;;;;10.40;9.00;;;;;23.09;45.52;98622.91;5113281;28;8832;-73
2022/06/08 00:14:46;;;;;;;;;9.60;8.40;;;;;23.14;45.24;98613.69;5113272;28;8847;-74
2022/06/08 00:17:15;;;;;;;;;8.40;8.40;;;;;23.14;45.41;98610.19;5077338;28;8828;-73
2022/06/08 00:19:44;;;;;;;;;9.00;9.00;;;;;23.06;45.59;98604.50;5077272;28;8843;-74
2022/06/08 00:22:12;;;;;;;;;12.60;10.60;;;;;23.01;45.37;98599.47;5093305;28;8962;-74
2022/06/08 00:24:42;;;;;;;;;10.60;10.00;;;;;23.05;45.63;98597.50;5061077;28;8978;-74
2022/06/08 00:27:12;;;;;;;;;9.00;8.40;;;;;23.02;45.43;98603.81;5094512;28;8859;-74
2022/06/08 00:29:41;;;;;;;;;10.40;10.00;;;;;23.06;45.52;98596.53;5094423;28;8850;-74
2022/06/08 00:32:10;;;;;;;;;8.20;7.80;;;;;23.08;45.20;98595.47;5153063;27;8843;-76
2022/06/08 00:34:38;;;;;;;;;9.00;8.60;;;;;23.13;45.20;98585.38;5109853;28;8825;-75
2022/06/08 00:37:07;;;;;;;;;8.40;7.80;;;;;23.14;45.16;98583.59;5093276;28;8841;-74
2022/06/08 00:39:35;;;;;;;;;9.40;9.40;;;;;23.19;45.01;98580.59;5076209;28;8847;-75
2022/06/08 00:42:10;;;;;;;;;10.20;10.20;;;;;23.23;44.86;98582.09;5092800;28;8975;-74
2022/06/08 00:44:43;;;;;;;;;8.80;8.60;;;;;23.17;44.80;98564.72;5110233;28;8836;-74
2022/06/08 00:47:17;;;;;;;;;10.20;8.40;;;;;23.18;44.88;98554.97;5092636;28;8868;-74
2022/06/08 00:49:51;;;;;;;;;8.20;8.00;;;;;23.12;44.84;98545.59;5109694;28;8837;-74
2022/06/08 00:52:21;;;;;;;;;11.40;10.20;;;;;23.06;45.15;98553.97;5092453;28;9710;-74
2022/06/08 00:54:54;;;;;;;;;9.40;9.40;;;;;23.02;45.00;98555.09;5075594;28;8867;-74
2022/06/08 00:57:29;;;;;;;;;11.40;10.40;;;;;22.96;45.21;98551.91;5109322;28;8833;-75
2022/06/08 01:00:03;;;;;;;;;9.00;9.00;;;;;22.92;45.06;98546.91;5092404;28;8975;-74
2022/06/08 01:02:32;;;;;;;;;8.00;8.00;;;;;22.93;45.16;98545.94;5092204;28;8861;-74
2022/06/08 01:05:28;;;;;;;;;10.20;10.00;;;;;22.91;45.01;98545.19;5091265;28;8929;-74
2022/06/08 01:08:02;;;;;;;;;11.00;10.60;;;;;22.96;44.83;98551.06;5092119;28;8915;-72
2022/06/08 01:10:41;;;;;;;;;11.40;10.60;;;;;22.91;44.86;98554.03;5092097;28;8879;-74
2022/06/08 01:13:11;;;;;;;;;9.40;9.40;;;;;22.89;45.16;98558.59;5142390;27;8824;-74
2022/06/08 01:15:42;;;;;;;;;9.00;8.40;;;;;22.90;44.94;98562.97;5133984;27;8859;-74
2022/06/08 01:18:15;;;;;;;;;8.00;8.00;;;;;22.90;44.92;98554.97;5134112;27;8824;-73
2022/06/08 01:20:46;;;;;;;;;9.00;9.00;;;;;22.87;45.08;98563.19;5134750;27;9611;-74
2022/06/08 01:23:19;;;;;;;;;11.00;10.00;;;;;22.87;45.15;98567.63;5134525;27;8863;-73
2022/06/08 01:26:10;;;;;;;;;10.60;10.60;;;;;22.92;45.17;98566.38;5134298;27;8851;-74
2022/06/08 01:28:47;;;;;;;;;10.80;9.80;;;;;23.02;44.97;98571.06;5083201;27;8874;-75
2022/06/08 01:31:24;;;;;;;;;8.00;8.00;;;;;22.96;44.95;98573.16;5152597;27;8882;-76
2022/06/08 01:34:07;;;;;;;;;11.20;11.20;;;;;22.95;45.10;98566.16;5134543;27;8847;-74
2022/06/08 01:37:01;;;;;;;;;7.40;6.40;;;;;22.96;44.90;98570.50;5133521;27;8878;-75
2022/06/08 01:39:44;;;;;;;;;7.60;7.20;;;;;22.96;44.98;98575.00;5152345;27;8846;-74
2022/06/08 01:42:32;;;;;;;;;9.20;9.20;;;;;23.00;44.65;98580.94;5151982;27;9673;-74
2022/06/08 01:45:30;;;;;;;;;8.20;8.20;;;;;23.04;44.68;98579.81;5108034;28;9625;-74
2022/06/08 01:48:15;;;;;;;;;10.80;10.00;;;;;23.12;44.40;98577.50;5091146;28;8859;-75
2022/06/08 01:50:57;;;;;;;;;8.80;7.00;;;;;23.13;44.32;98573.88;5091427;28;8854;-73
2022/06/08 01:53:37;;;;;;;;;9.00;8.00;;;;;23.23;44.13;98580.31;5091520;28;8847;-74
2022/06/08 01:56:17;;;;;;;;;8.40;8.20;;;;;23.26;44.04;98573.91;5108128;28;8860;-75
2022/06/08 01:58:53;;;;;;;;;9.20;8.20;;;;;23.29;44.11;98569.22;5091366;28;8870;-74
2022/06/08 02:01:28;;;;;;;;;8.20;8.20;;;;;23.31;43.79;98562.00;5057658;28;8859;-74
2022/06/08 02:04:10;;;;;;;;;10.40;10.40;;;;;23.35;43.88;98557.31;5090715;28;8974;-74
2022/06/08 02:06:49;;;;;;;;;8.60;8.60;;;;;23.31;43.91;98556.66;5091029;28;8855;-74
2022/06/08 02:09:24;;;;;;;;;9.20;9.20;;;;;23.29;43.85;98555.06;5090707;28;8852;-73
2022/06/08 02:12:00;;;;;;;;;9.20;9.20;;;;;23.22;44.29;98567.94;5107906;28;8840;-74
2022/06/08 02:14:40;;;;;;;;;7.80;7.80;;;;;23.25;44.01;98573.06;5090899;28;8851;-74
2022/06/08 02:17:20;;;;;;;;;9.00;9.00;;;;;23.27;43.81;98580.91;5079302;27;8839;-74
2022/06/08 02:19:52;;;;;;;;;9.60;8.80;;;;;23.29;43.81;98584.31;5132810;27;9611;-73
2022/06/08 02:22:27;;;;;;;;;10.00;9.60;;;;;23.28;43.83;98593.28;5132862;27;8815;-74
2022/06/08 02:25:02;;;;;;;;;8.40;8.40;;;;;23.33;43.47;98586.69;5132647;27;8835;-74
2022/06/08 02:27:40;;;;;;;;;8.20;8.20;;;;;23.37;43.46;98587.31;5133250;27;8859;-73
2022/06/08 02:30:12;;;;;;;;;7.40;7.40;;;;;23.37;43.57;98576.69;5132600;27;8843;-73
2022/06/08 02:35:42;;;;;;;;;10.60;10.60;;;;;23.38;43.50;98582.84;5132617;27;8819;-74
2022/06/08 02:38:15;;;;;;;;;10.00;10.00;;;;;23.42;43.49;98584.34;5132455;27;8835;-75
2022/06/08 02:40:48;;;;;;;;;9.00;9.00;;;;;23.46;43.32;98584.03;5132486;27;8855;-73
2022/06/08 02:43:24;;;;;;;;;11.00;11.00;;;;;23.50;43.12;98582.03;5132717;27;8835;-74
2022/06/08 02:46:00;;;;;;;;;9.60;8.20;;;;;23.50;43.12;98590.00;5132368;27;9026;-75
2022/06/08 02:48:28;;;;;;;;;8.00;8.00;;;;;23.57;42.83;98590.41;5132527;27;8831;-72
2022/06/08 02:50:58;;;;;;;;;9.60;9.60;;;;;23.53;42.98;98590.66;5132560;27;8828;-74
2022/06/08 02:53:52;;;;;;;;;10.20;10.20;;;;;23.54;42.84;98587.00;5132304;27;8939;-74
2022/06/08 02:56:40;;;;;;;;;9.00;8.00;;;;;23.61;42.73;98587.44;5132153;27;8863;-74
2022/06/08 02:59:15;;;;;;;;;8.20;8.20;;;;;23.59;42.91;98592.03;5107057;28;8806;-74
2022/06/08 03:01:52;;;;;;;;;9.00;8.80;;;;;23.63;42.79;98597.97;5073018;28;8845;-76
2022/06/08 03:04:25;;;;;;;;;10.00;9.60;;;;;23.64;42.80;98607.66;5065935;28;8864;-74
2022/06/08 03:06:57;;;;;;;;;8.40;8.00;;;;;23.74;42.67;98606.94;5067791;28;8828;-74
2022/06/08 03:09:29;;;;;;;;;8.60;8.60;;;;;23.80;42.47;98612.78;5070641;28;8852;-73
2022/06/08 03:12:02;;;;;;;;;7.60;7.60;;;;;23.88;42.12;98619.28;5053979;28;8840;-75
2022/06/08 03:14:34;;;;;;;;;7.20;7.20;;;;;24.00;41.79;98624.72;5068917;28;8855;-75
2022/06/08 03:17:08;;;;;;;;;9.80;9.80;;;;;24.04;41.78;98624.38;5069483;28;8840;-74
2022/06/08 03:19:38;;;;;;;;;8.80;8.80;;;;;24.09;41.57;98630.25;5003102;28;8871;-74
2022/06/08 03:22:08;;;;;;;;;11.80;11.80;;;;;24.11;41.43;98623.00;5032584;28;8851;-74
2022/06/08 03:24:36;;;;;;;;;13.60;13.20;;;;;24.15;41.56;98622.78;5065794;28;8887;-75
2022/06/08 03:27:08;;;;;;;;;9.40;9.40;;;;;24.15;41.62;98618.28;5066051;28;8832;-75
2022/06/08 03:29:42;;;;;;;;;8.60;8.60;;;;;24.20;41.51;98621.50;5053437;28;8850;-74
2022/06/08 03:32:12;;;;;;;;;9.00;9.00;;;;;24.16;41.57;98616.47;5036605;28;8858;-73
2022/06/08 03:34:41;;;;;;;;;7.60;7.00;;;;;24.19;41.53;98616.25;5089835;28;8853;-74
2022/06/08 03:37:10;;;;;;;;;9.60;7.60;;;;;24.17;41.66;98607.53;5124423;28;8863;-74
2022/06/08 03:39:45;;;;;;;;;8.40;8.40;;;;;24.20;41.45;98610.84;5107342;28;9575;-74
2022/06/08 03:42:14;;;;;;;;;8.00;8.00;;;;;24.22;41.54;98608.06;5105978;28;8847;-75
2022/06/08 03:44:43;;;;;;;;;10.00;9.20;;;;;24.22;41.51;98600.91;5089703;28;8889;-77
2022/06/08 03:47:18;;;;;;;;;9.00;9.00;;;;;24.24;41.60;98604.31;5089393;28;8840;-73
2022/06/08 03:49:50;;;;;;;;;8.40;7.80;;;;;24.28;41.69;98604.94;5106264;28;8835;-74
2022/06/08 03:52:23;;;;;;;;;10.20;9.80;;;;;24.26;41.83;98596.22;5106086;28;9693;-75
2022/06/08 03:54:59;;;;;;;;;19.00;16.60;;;;;24.22;41.65;98584.09;5057381;28;9635;-75
2022/06/08 03:57:31;;;;;;;;;11.20;11.20;;;;;24.23;41.73;98577.78;5056198;28;8843;-75
2022/06/08 04:00:08;;;;;;;;;11.20;10.20;;;;;24.12;42.03;98574.09;5088991;28;8999;-74
2022/06/08 04:02:53;;;;;;;;;8.80;8.80;;;;;23.96;42.44;98573.47;5105549;28;8863;-75
2022/06/08 04:05:29;;;;;;;;;10.80;9.80;;;;;23.86;42.79;98562.63;5089154;28;8831;-74
2022/06/08 04:08:00;;;;;;;;;8.40;8.20;;;;;23.78;42.98;98561.44;5106196;28;8819;-75
2022/06/08 04:10:31;;;;;;;;;10.40;10.20;;;;;23.75;43.10;98571.34;5088979;28;8952;-73
2022/06/08 04:12:59;;;;;;;;;8.40;8.40;;;;;23.77;43.08;98565.06;5105808;28;8851;-74
2022/06/08 04:15:45;;;;;;;;;8.40;8.40;;;;;23.72;43.23;98568.91;5089154;28;8842;-75
2022/06/08 04:18:25;;;;;;;;;26.75;24.25;;;;;23.76;43.45;98558.88;5089016;28;8844;-73
2022/06/08 04:21:03;;;;;;;;;10.60;9.80;;;;;23.78;43.28;98558.75;5085023;28;8815;-75
2022/06/08 04:23:50;;;;;;;;;7.00;7.00;;;;;23.77;43.33;98559.75;5085481;28;9814;-74
2022/06/08 04:26:22;;;;;;;;;9.20;7.00;;;;;23.75;43.43;98554.53;5068648;28;8839;-74
2022/06/08 04:28:56;;;;;;;;;7.80;7.80;;;;;23.72;43.42;98563.59;5086052;28;8869;-75
2022/06/08 04:31:26;;;;;;;;;6.60;6.40;;;;;23.72;43.32;98550.28;5069437;28;8843;-75
2022/06/08 04:34:03;;;;;;;;;9.40;9.40;;;;;23.71;43.38;98555.72;5099537;27;8970;-75
2022/06/08 04:36:36;;;;;;;;;9.00;8.40;;;;;23.66;43.65;98560.50;5109888;27;8843;-73
2022/06/08 04:39:07;;;;;;;;;9.00;9.00;;;;;23.68;43.58;98555.91;5092889;27;9650;-73
2022/06/08 04:41:37;;;;;;;;;12.60;10.80;;;;;23.74;43.54;98548.34;5112683;27;8877;-74
2022/06/08 04:44:07;;;;;;;;;8.00;8.00;;;;;23.75;43.68;98544.72;5079295;27;8858;-74
2022/06/08 04:46:40;;;;;;;;;11.00;11.00;;;;;23.70;43.83;98546.00;5112320;27;8842;-75
2022/06/08 04:49:15;;;;;;;;;8.00;8.00;;;;;23.75;43.92;98530.56;5129928;27;8961;-75
2022/06/08 04:51:46;;;;;;;;;7.00;6.80;;;;;23.75;43.78;98528.75;5116567;27;8950;-75
2022/06/08 04:54:16;;;;;;;;;10.00;10.00;;;;;23.83;44.04;98538.88;5130886;27;8864;-76
2022/06/08 04:56:47;;;;;;;;;10.60;10.60;;;;;23.94;43.76;98538.13;5130773;27;8942;-75
2022/06/08 04:59:15;;;;;;;;;9.20;9.20;;;;;24.05;43.60;98546.19;5130915;27;8900;-75
2022/06/08 05:01:54;;;;;;;;;8.00;8.00;;;;;24.11;43.52;98545.75;5130962;27;8850;-75
2022/06/08 05:04:22;;;;;;;;;8.20;7.40;;;;;24.21;43.47;98545.06;5131271;27;8924;-73
2022/06/08 05:06:52;;;;;;;;;8.00;8.00;;;;;24.33;43.41;98553.03;5130834;27;8918;-75
2022/06/08 05:09:22;;;;;;;;;9.80;9.60;;;;;24.41;43.01;98554.28;5130526;27;8842;-77
2022/06/08 05:11:51;;;;;;;;;9.20;8.80;;;;;24.44;42.83;98557.56;5131160;27;8857;-74
2022/06/08 05:14:23;;;;;;;;;8.40;8.40;;;;;24.54;42.46;98556.91;5130977;27;8854;-74
2022/06/08 05:16:56;;;;;;;;;9.60;9.60;;;;;24.56;42.70;98555.84;5130943;27;8839;-74
2022/06/08 05:19:25;;;;;;;;;8.00;8.00;;;;;24.60;42.18;98557.31;5131949;27;8886;-74
2022/06/08 05:21:54;;;;;;;;;10.00;9.40;;;;;24.59;42.06;98566.25;5131709;27;8862;-75
2022/06/08 05:24:26;;;;;;;;;8.00;8.00;;;;;24.62;41.99;98571.38;5129796;27;8850;-75
2022/06/08 05:26:55;;;;;;;;;8.80;8.80;;;;;24.70;41.91;98573.47;5130128;27;8834;-75
2022/06/08 05:29:24;;;;;;;;;9.60;9.60;;;;;24.78;41.97;98578.22;5130207;27;8877;-74
2022/06/08 05:31:58;;;;;;;;;9.00;9.00;;;;;24.84;41.75;98578.63;5130105;27;8850;-75
2022/06/08 05:34:29;;;;;;;;;9.20;9.00;;;;;24.87;41.68;98578.38;5130263;27;8923;-74
2022/06/08 05:37:00;;;;;;;;;10.40;9.20;;;;;24.98;41.47;98579.41;5130264;27;8847;-74
2022/06/08 05:39:28;;;;;;;;;7.80;7.60;;;;;25.04;41.43;98584.28;5130195;27;8830;-74
2022/06/08 05:41:57;;;;;;;;;8.80;8.80;;;;;25.14;41.04;98587.09;5112663;27;8869;-74
2022/06/08 05:44:27;;;;;;;;;8.80;8.80;;;;;25.20;40.46;98592.81;5133381;27;8850;-76
2022/06/08 05:47:00;;;;;;;;;6.00;6.00;;;;;25.28;40.36;98600.28;5129703;27;8862;-75
2022/06/08 05:49:32;;;;;;;;;10.20;9.20;;;;;25.36;40.23;98599.69;5130019;27;8830;-75
2022/06/08 05:52:06;;;;;;;;;9.40;8.60;;;;;25.44;40.04;98615.94;5128877;27;8826;-74
2022/06/08 05:54:36;;;;;;;;;9.20;9.20;;;;;25.64;40.00;98614.44;5129746;27;8847;-74
2022/06/08 05:57:06;;;;;;;;;9.20;9.20;;;;;25.92;39.72;98617.63;5095209;27;8827;-74
2022/06/08 05:59:40;;;;;;;;;8.40;8.40;;;;;26.13;39.09;98620.44;5129832;27;8846;-75
2022/06/08 06:02:14;;;;;;;;;7.00;7.00;;;;;26.14;38.04;98617.63;5129477;27;8826;-74
2022/06/08 06:04:44;;;;;;;;;8.20;8.20;;;;;26.19;38.23;98607.41;5129960;27;8838;-74
2022/06/08 06:07:13;;;;;;;;;10.80;9.00;;;;;26.29;38.24;98612.88;5130166;27;8854;-76
2022/06/08 06:09:47;;;;;;;;;7.00;7.00;;;;;26.38;38.19;98606.78;5080278;27;8834;-75
2022/06/08 06:12:16;;;;;;;;;11.60;11.60;;;;;26.51;37.90;98617.34;5129025;27;8861;-74
2022/06/08 06:14:46;;;;;;;;;8.40;7.60;;;;;26.57;36.52;98614.16;5128988;27;9707;-75
2022/06/08 06:17:16;;;;;;;;;8.40;7.80;;;;;26.61;36.43;98612.13;5128978;27;8834;-74
2022/06/08 06:19:45;;;;;;;;;10.20;9.00;;;;;26.68;36.50;98618.66;5128940;27;8859;-74
2022/06/08 06:22:26;;;;;;;;;9.40;9.20;;;;;26.66;36.69;98619.78;5129051;27;8865;-76
2022/06/08 06:25:27;;;;;;;;;10.80;9.00;;;;;26.72;35.98;98628.13;5128931;27;8838;-76
2022/06/08 06:28:15;;;;;;;;;10.00;10.00;;;;;26.95;36.03;98626.22;5130036;27;8826;-76
2022/06/08 06:31:05;;;;;;;;;11.20;10.40;;;;;27.15;35.64;98632.59;5129907;27;8946;-76
2022/06/08 06:33:46;;;;;;;;;7.60;7.40;;;;;27.28;35.14;98635.13;5128984;27;8834;-75
2022/06/08 06:36:14;;;;;;;;;7.00;7.00;;;;;27.41;35.05;98642.97;5128701;27;8847;-75
2022/06/08 06:38:44;;;;;;;;;10.60;9.20;;;;;27.47;34.13;98639.78;5128752;27;8878;-73
2022/06/08 06:41:15;;;;;;;;;9.40;8.40;;;;;27.46;34.20;98643.41;5128837;27;8842;-75
2022/06/08 06:43:46;;;;;;;;;7.00;7.00;;;;;27.32;33.65;98646.44;5128946;27;8846;-73
2022/06/08 06:46:32;;;;;;;;;8.20;8.00;;;;;27.20;33.33;98640.22;5129286;27;8830;-75
2022/06/08 06:49:31;;;;;;;;;7.00;6.00;;;;;27.17;33.42;98648.53;5107134;28;9636;-74
2022/06/08 06:52:00;;;;;;;;;9.00;7.80;;;;;27.21;33.93;98655.31;5090335;28;8999;-74
2022/06/08 06:54:29;;;;;;;;;9.80;8.80;;;;;27.10;33.98;98650.88;5107171;28;8906;-76
2022/06/08 06:56:59;;;;;;;;;7.40;7.20;;;;;27.11;34.18;98654.38;5089870;28;8856;-75
2022/06/08 06:59:29;;;;;;;;;12.40;9.80;;;;;27.22;34.15;98665.91;5089508;28;8829;-75
2022/06/08 07:01:58;;;;;;;;;8.40;7.80;;;;;27.13;34.21;98661.31;5089145;28;8882;-74
2022/06/08 07:04:27;;;;;;;;;9.00;8.20;;;;;27.11;34.13;98660.59;5088318;28;8872;-75
2022/06/08 07:07:00;;;;;;;;;10.00;9.00;;;;;27.20;34.12;98661.66;5089056;28;8817;-75
2022/06/08 07:09:29;;;;;;;;;7.80;7.80;;;;;27.29;33.97;98654.72;5089270;28;8838;-75
2022/06/08 07:11:59;;;;;;;;;6.40;6.40;;;;;27.33;34.17;98656.16;5106255;28;8833;-74
2022/06/08 07:14:32;;;;;;;;;6.60;6.60;;;;;27.44;33.50;98668.66;5056624;28;9693;-79
2022/06/08 07:17:05;;;;;;;;;9.80;9.80;;;;;27.56;33.80;98678.31;5106018;28;8829;-76
2022/06/08 07:19:38;;;;;;;;;8.00;8.00;;;;;27.89;33.56;98685.31;5089025;28;8861;-76
2022/06/08 07:22:10;;;;;;;;;7.20;7.20;;;;;28.16;33.04;98692.78;5072565;28;8845;-75
2022/06/08 07:24:39;;;;;;;;;11.40;10.20;;;;;28.15;32.69;98691.13;5106398;28;8853;-76
2022/06/08 07:27:07;;;;;;;;;7.60;7.00;;;;;28.35;32.08;98697.38;5126987;27;8866;-74
2022/06/08 07:29:36;;;;;;;;;7.40;6.20;;;;;28.56;32.05;98709.94;5129086;27;8852;-74
2022/06/08 07:32:05;;;;;;;;;7.20;7.20;;;;;28.64;32.00;98714.59;5129735;27;8865;-75
2022/06/08 07:34:34;;;;;;;;;8.40;8.40;;;;;28.59;32.17;98725.75;5093676;27;8838;-79
2022/06/08 07:37:03;;;;;;;;;12.00;8.00;;;;;28.30;32.34;98721.09;5129531;27;8835;-75
2022/06/08 07:39:33;;;;;;;;;7.00;7.00;;;;;27.81;31.89;98727.97;5128998;27;8862;-75
2022/06/08 07:42:03;;;;;;;;;8.80;8.80;;;;;27.33;31.95;98736.47;5128876;27;8926;-77
2022/06/08 07:44:31;;;;;;;;;8.00;7.60;;;;;27.22;32.48;98738.19;5129327;27;8850;-75
2022/06/08 07:47:00;;;;;;;;;8.00;8.00;;;;;27.49;33.11;98726.19;5129265;27;8835;-78
2022/06/08 07:49:40;;;;;;;;;8.20;8.20;;;;;27.70;32.66;98728.88;5127907;27;8862;-76
2022/06/08 07:52:17;;;;;;;;;7.00;7.00;;;;;27.78;32.69;98736.28;5129150;27;8843;-76
2022/06/08 07:54:48;;;;;;;;;11.80;10.60;;;;;27.80;35.09;98735.16;5128620;27;8831;-75
2022/06/08 07:57:20;;;;;;;;;16.00;15.80;;;;;27.10;41.35;98744.53;5129025;27;8847;-75
2022/06/08 07:59:49;;;;;;;;;14.40;14.40;;;;;26.62;43.99;98745.72;5127333;27;8851;-75
2022/06/08 08:02:18;;;;;;;;;16.80;16.80;;;;;26.55;45.22;98751.66;5128925;27;8833;-75
2022/06/08 08:04:47;;;;;;;;;17.60;16.60;;;;;25.94;47.64;98744.78;5128768;27;8974;-75
2022/06/08 08:07:18;;;;;;;;;21.40;16.80;;;;;24.97;51.07;98757.28;5127917;27;8930;-75
2022/06/08 08:09:49;;;;;;;;;21.25;18.25;;;;;25.29;50.41;98757.63;5129100;27;8850;-74
2022/06/08 08:12:18;;;;;;;;;22.60;20.40;;;;;25.63;49.76;98762.25;5128916;27;9591;-75
2022/06/08 08:14:47;;;;;;;;;21.80;19.20;;;;;25.07;51.18;98768.97;5128576;27;8964;-75
2022/06/08 08:17:15;;;;;;;;;17.75;17.50;;;;;24.81;52.29;98776.19;5132388;27;8831;-75
2022/06/08 08:19:43;;;;;;;;;21.75;20.75;;;;;24.36;54.11;98778.47;5132413;27;8952;-75
2022/06/08 08:22:14;;;;;;;;;20.50;20.50;;;;;23.90;55.51;98786.97;5132250;27;8881;-75
2022/06/08 08:24:42;;;;;;;;;21.75;21.50;;;;;23.73;55.99;98791.56;5132946;27;8877;-75
2022/06/08 08:27:12;;;;;;;;;24.00;24.00;;;;;23.63;56.06;98800.25;5132712;27;8877;-73
2022/06/08 08:29:41;;;;;;;;;25.50;25.50;;;;;23.38;57.08;98798.38;5133162;27;8835;-74
2022/06/08 08:32:10;;;;;;;;;19.00;19.00;;;;;23.33;57.26;98788.88;5132507;27;8838;-73
2022/06/08 08:34:39;;;;;;;;;26.00;24.00;;;;;23.38;58.10;98788.56;5096621;27;9600;-75
2022/06/08 08:37:07;;;;;;;;;25.00;25.00;;;;;23.22;59.00;98786.06;5096922;27;8854;-75
2022/06/08 08:39:36;;;;;;;;;27.50;27.00;;;;;23.54;58.04;98778.63;5131281;27;8834;-75
2022/06/08 08:42:21;;;;;;;;;29.25;27.50;;;;;23.84;56.79;98774.91;5131661;27;8858;-75
2022/06/08 08:44:54;;;;;;;;;24.75;23.75;;;;;24.12;56.79;98765.88;5132681;27;8850;-75
2022/06/08 08:47:33;;;;;;;;;24.50;24.00;;;;;24.76;54.84;98770.34;5132232;27;8850;-75
2022/06/08 08:50:11;;;;;;;;;23.60;21.00;;;;;25.19;51.69;98767.22;5132736;27;8881;-76
2022/06/08 08:52:45;;;;;;;;;29.25;27.75;;;;;25.36;51.62;98773.19;5132423;27;8892;-75
2022/06/08 08:55:19;;;;;;;;;22.50;22.50;;;;;25.16;52.30;98767.47;5130599;27;8873;-74
2022/06/08 08:57:56;;;;;;;;;24.25;21.75;;;;;24.71;53.08;98764.50;5078191;27;8977;-74
2022/06/08 09:00:37;;;;;;;;;23.50;22.50;;;;;24.31;54.06;98768.13;5131736;27;8880;-74
2022/06/08 09:03:27;;;;;;;;;28.75;27.75;;;;;24.63;53.78;98764.16;5138283;27;8863;-74
2022/06/08 09:06:02;;;;;;;;;24.75;23.25;;;;;25.32;52.17;98758.38;5133699;27;8827;-74
2022/06/08 09:08:30;;;;;;;;;23.25;21.75;;;;;25.94;50.44;98757.28;5152473;27;8851;-74
2022/06/08 09:11:01;;;;;;;;;27.75;27.75;;;;;26.37;47.97;98754.81;5133660;27;8896;-75
2022/06/08 09:13:44;;;;;;;;;22.00;21.00;;;;;25.84;48.64;98760.63;5134701;27;8835;-75
2022/06/08 09:16:29;;;;;;;;;25.50;24.50;;;;;25.41;49.98;98750.53;5153504;27;8847;-75
2022/06/08 09:18:58;;;;;;;;;24.00;23.75;;;;;25.95;49.14;98751.81;5152904;27;8824;-74
2022/06/08 09:21:31;;;;;;;;;26.00;25.33;;;;;26.35;48.29;98756.75;5152788;27;8969;-74
2022/06/08 09:24:03;;;;;;;;;23.75;23.75;;;;;26.70;47.11;98755.81;5152844;27;8844;-75
2022/06/08 09:26:35;;;;;;;;;25.50;24.25;;;;;26.99;46.82;98750.78;5133770;27;8827;-73
2022/06/08 09:29:13;;;;;;;;;24.50;23.25;;;;;27.21;45.85;98751.69;5152607;27;8836;-74
2022/06/08 09:31:45;;;;;;;;;22.00;21.25;;;;;27.46;44.81;98747.88;5152280;27;9001;-74
2022/06/08 09:34:20;;;;;;;;;20.25;18.50;;;;;27.65;44.39;98738.28;5152607;27;8839;-76
2022/06/08 09:37:06;;;;;;;;;22.00;22.00;;;;;27.87;44.12;98745.38;5152649;27;8835;-75
2022/06/08 09:39:36;;;;;;;;;9.75;9.75;;;;;28.12;43.17;98738.78;5151795;27;9579;-75
2022/06/08 09:42:25;;;;;;;;;18.40;16.60;;;;;28.46;42.45;98735.84;5113829;27;8827;-75
2022/06/08 09:45:03;;;;;;;;;20.60;17.20;;;;;28.68;41.37;98738.38;5077099;28;8974;-75
2022/06/08 09:53:40;;;;;;;;;22.00;19.50;;;;;29.30;40.54;98730.16;5151348;27;8839;-74
2022/06/08 09:56:24;;;;;;;;;21.50;19.25;;;;;29.45;40.30;98735.97;5151463;27;9636;-74
2022/06/08 09:59:18;;;;;;;;;20.50;20.50;;;;;29.60;40.02;98744.47;5151291;27;8843;-76
2022/06/08 10:01:53;;;;;;;;;23.00;22.50;;;;;29.66;39.95;98731.31;5098361;27;8869;-75
2022/06/08 10:04:48;;;;;;;;;19.75;19.00;;;;;29.73;39.22;98727.09;5151184;27;8867;-75
2022/06/08 10:07:20;;;;;;;;;21.50;21.50;;;;;29.73;39.30;98735.16;5151055;27;8889;-75
2022/06/08 10:10:11;;;;;;;;;24.25;24.25;;;;;29.71;38.94;98733.56;5151213;27;8854;-75
2022/06/08 10:12:49;;;;;;;;;25.00;24.00;;;;;29.57;39.01;98739.41;5150960;27;8982;-74
2022/06/08 10:15:25;;;;;;;;;22.75;22.75;;;;;28.08;42.43;98748.91;5114829;27;8889;-75
2022/06/08 10:18:00;;;;;;;;;23.50;22.00;;;;;27.77;44.26;98742.63;5150853;27;8824;-75
2022/06/08 10:20:36;;;;;;;;;33.00;29.00;;;;;27.54;46.43;98753.44;5151208;27;8832;-75
2022/06/08 10:23:24;;;;;;;;;33.00;30.75;;;;;26.94;49.78;98758.34;5150858;27;8858;-75
2022/06/08 10:25:58;;;;;;;;;29.75;28.75;;;;;25.98;54.16;98740.91;5099997;27;8835;-75
2022/06/08 10:28:36;;;;;;;;;38.25;33.25;;;;;25.10;58.09;98752.75;5098847;27;9024;-74
2022/06/08 10:31:13;;;;;;;;;29.25;28.75;;;;;24.90;59.23;98751.53;5132043;27;8865;-74
2022/06/08 10:33:54;;;;;;;;;29.00;27.25;;;;;24.66;60.16;98750.63;5132441;27;8845;-75
2022/06/08 10:36:26;;;;;;;;;29.00;27.75;;;;;24.70;60.55;98754.78;5131550;27;8828;-74
2022/06/08 10:38:55;;;;;;;;;26.75;26.75;;;;;24.51;60.98;98748.09;5150137;27;8843;-73
2022/06/08 10:44:37;;;;;;;;;27.00;25.00;;;;;24.22;61.94;98752.78;5150747;27;8846;-74
2022/06/08 10:47:21;;;;;;;;;25.50;24.50;;;;;24.42;60.26;98745.19;5150301;27;8857;-76
2022/06/08 10:49:52;;;;;;;;;29.50;26.25;;;;;24.59;59.66;98746.69;5106219;28;8828;-74
2022/06/08 10:52:38;;;;;;;;;27.50;24.50;;;;;24.27;61.14;98749.78;5106171;28;8917;-74
2022/06/08 10:55:37;;;;;;;;;28.50;25.00;;;;;23.80;62.49;98753.91;5106228;28;8870;-75
2022/06/08 10:58:12;;;;;;;;;22.00;20.75;;;;;23.86;62.20;98745.53;5045869;28;8840;-74
2022/06/08 11:01:01;;;;;;;;;28.75;28.75;;;;;23.88;62.16;98736.47;5046548;28;9773;-75
2022/06/08 11:03:54;;;;;;;;;29.25;29.00;;;;;24.13;61.33;98734.75;5029776;28;8876;-75
2022/06/08 11:07:03;;;;;;;;;33.50;32.00;;;;;23.90;61.45;98733.69;5046519;28;8859;-75
2022/06/08 11:09:56;;;;;;;;;35.50;32.50;;;;;24.20;60.33;98729.88;5046373;28;8852;-75
2022/06/08 11:12:34;;;;;;;;;30.25;29.50;;;;;23.93;60.94;98734.34;5046178;28;8945;-75
2022/06/08 11:15:12;;;;;;;;;30.50;29.75;;;;;23.95;61.12;98734.25;5045287;28;8872;-75
2022/06/08 11:17:48;;;;;;;;;27.00;26.00;;;;;24.08;60.62;98739.56;5045601;28;8850;-75
2022/06/08 11:20:21;;;;;;;;;32.50;31.25;;;;;24.06;60.63;98750.31;5049398;28;8857;-75
2022/06/08 11:22:54;;;;;;;;;34.25;31.25;;;;;24.58;58.89;98737.84;5065216;28;8829;-75
2022/06/08 11:25:29;;;;;;;;;23.25;23.25;;;;;25.21;56.24;98738.59;5065409;28;8841;-75
2022/06/08 11:28:35;;;;;;;;;29.25;28.00;;;;;25.70;54.23;98741.28;5065558;28;8841;-74
2022/06/08 11:31:05;;;;;;;;;23.50;23.25;;;;;26.21;53.48;98735.59;5065277;28;8871;-74
2022/06/08 11:33:59;;;;;;;;;28.75;26.75;;;;;26.54;52.47;98745.44;5064335;28;9012;-76
2022/06/08 11:36:49;;;;;;;;;31.25;30.75;;;;;26.03;54.28;98743.19;5149229;27;8877;-75
2022/06/08 11:39:24;;;;;;;;;25.50;25.00;;;;;26.02;54.09;98746.84;5149306;27;8839;-76
2022/06/08 11:42:22;;;;;;;;;29.50;28.25;;;;;25.78;54.83;98752.22;5149474;27;8874;-74
2022/06/08 11:44:54;;;;;;;;;30.00;28.25;;;;;26.24;53.21;98735.34;5149643;27;8859;-76
2022/06/08 11:47:29;;;;;;;;;27.50;27.50;;;;;25.96;53.30;98729.47;5149473;27;8862;-75
2022/06/08 11:50:02;;;;;;;;;26.50;25.00;;;;;26.03;53.12;98735.19;5114571;27;8846;-75
2022/06/08 11:52:35;;;;;;;;;28.50;25.25;;;;;26.58;51.87;98727.34;5135304;27;8839;-74
2022/06/08 11:55:20;;;;;;;;;26.00;26.00;;;;;25.98;53.56;98724.88;5089525;28;8830;-74
2022/06/08 11:57:55;;;;;;;;;25.50;25.50;;;;;25.91;54.19;98720.94;5089142;28;8869;-76
2022/06/08 12:00:31;;;;;;;;;28.75;26.00;;;;;25.49;54.60;98712.56;5089360;28;8845;-75
2022/06/08 12:03:18;;;;;;;;;25.75;24.75;;;;;25.28;55.49;98715.88;5088915;28;8892;-75
2022/06/08 12:05:51;;;;;;;;;23.00;22.25;;;;;25.80;53.25;98723.56;5089044;28;8862;-74
2022/06/08 12:08:29;;;;;;;;;21.50;20.50;;;;;26.75;51.91;98704.59;5088837;28;8961;-74
2022/06/08 12:11:21;;;;;;;;;21.50;21.00;;;;;27.55;49.57;98704.25;5089325;28;8838;-75
2022/06/08 12:13:56;;;;;;;;;28.00;28.00;;;;;28.12;46.48;98709.28;5089252;28;8849;-74
2022/06/08 12:16:30;;;;;;;;;26.50;26.50;;;;;27.48;47.46;98710.25;5089236;28;8826;-76
2022/06/08 12:19:03;;;;;;;;;25.75;25.75;;;;;28.09;46.21;98707.75;5072419;28;8869;-75
2022/06/08 12:21:36;;;;;;;;;24.25;23.25;;;;;28.81;45.29;98702.38;5089061;28;8873;-75
2022/06/08 12:24:24;;;;;;;;;18.00;17.75;;;;;28.64;44.61;98696.69;5088826;28;8848;-74